createdAt,value
2023-05-03T00:00:28.200Z,9.29
2023-05-03T00:01:28.332Z,9.29
2023-05-03T00:02:28.568Z,9.27
2023-05-03T00:03:28.667Z,9.29
2023-05-03T00:04:28.931Z,9.29
2023-05-03T00:05:29.094Z,9.29
2023-05-03T00:06:29.248Z,9.26
2023-05-03T00:07:29.352Z,9.22
2023-05-03T00:08:29.504Z,9.21
2023-05-03T00:09:29.642Z,9.21
2023-05-03T00:10:29.781Z,9.19
2023-05-03T00:11:29.911Z,9.18
2023-05-03T00:12:30.055Z,9.15
2023-05-03T00:13:30.191Z,9.11
2023-05-03T00:14:30.340Z,9.08
2023-05-03T00:15:30.475Z,9.02
2023-05-03T00:16:30.660Z,9.05
2023-05-03T00:17:30.805Z,9.08
2023-05-03T00:18:30.892Z,9.05
2023-05-03T00:19:31.985Z,9.05
2023-05-03T00:20:31.386Z,9.09
2023-05-03T00:21:31.577Z,9.03
2023-05-03T00:22:31.731Z,9.02
2023-05-03T00:23:31.892Z,8.97
2023-05-03T00:24:32.024Z,8.93
2023-05-03T00:25:32.160Z,8.93
2023-05-03T00:26:32.429Z,8.92
2023-05-03T00:27:32.568Z,8.89
2023-05-03T00:28:32.719Z,8.82
2023-05-03T00:29:32.878Z,8.78
2023-05-03T00:30:33.020Z,8.77
2023-05-03T00:31:33.307Z,8.75
2023-05-03T00:32:33.398Z,8.77
2023-05-03T00:33:33.531Z,8.77
2023-05-03T00:34:33.689Z,8.75
2023-05-03T00:35:33.833Z,8.72
2023-05-03T00:36:35.789Z,8.69
2023-05-03T00:37:34.293Z,8.66
2023-05-03T00:38:34.557Z,8.64
2023-05-03T00:39:34.696Z,8.63
2023-05-03T00:40:34.850Z,8.64
2023-05-03T00:41:34.996Z,8.61
2023-05-03T00:42:35.136Z,8.59
2023-05-03T00:43:35.330Z,8.57
2023-05-03T00:44:35.472Z,8.56
2023-05-03T00:45:35.613Z,8.53
2023-05-03T00:46:35.913Z,8.52
2023-05-03T00:47:36.051Z,8.46
2023-05-03T00:48:36.177Z,8.46
2023-05-03T00:49:36.345Z,8.46
2023-05-03T00:50:36.485Z,8.42
2023-05-03T00:51:36.633Z,8.44
2023-05-03T00:52:36.906Z,8.45
2023-05-03T00:53:37.056Z,8.41
2023-05-03T00:54:37.233Z,8.39
2023-05-03T00:55:37.391Z,8.39
2023-05-03T00:56:44.377Z,8.38
2023-05-03T00:57:38.876Z,8.32
2023-05-03T00:58:38.025Z,8.31
2023-05-03T00:59:38.178Z,8.34
2023-05-03T01:00:38.346Z,8.31
2023-05-03T01:01:38.507Z,8.28
2023-05-03T01:02:38.858Z,8.27
2023-05-03T01:03:38.992Z,8.26
2023-05-03T01:04:40.532Z,8.23
2023-05-03T01:05:39.232Z,8.23
2023-05-03T01:06:39.579Z,8.20
2023-05-03T01:07:39.718Z,8.18
2023-05-03T01:08:39.872Z,8.18
2023-05-03T01:09:40.051Z,8.16
2023-05-03T01:10:40.207Z,8.16
2023-05-03T01:11:40.358Z,8.16
2023-05-03T01:12:40.517Z,8.17
2023-05-03T01:13:40.781Z,8.11
2023-05-03T01:14:40.960Z,8.08
2023-05-03T01:15:41.119Z,8.09
2023-05-03T01:16:41.325Z,8.08
2023-05-03T01:17:41.532Z,8.06
2023-05-03T01:18:41.772Z,8.06
2023-05-03T01:19:41.946Z,8.09
2023-05-03T01:20:42.180Z,8.06
2023-05-03T01:21:42.349Z,8.05
2023-05-03T01:22:42.523Z,8.02
2023-05-03T01:23:42.665Z,8.01
2023-05-03T01:24:42.844Z,7.98
2023-05-03T01:25:43.001Z,8.01
2023-05-03T01:26:43.266Z,8.01
2023-05-03T01:27:43.418Z,8.01
2023-05-03T01:28:43.579Z,8.02
2023-05-03T01:29:43.758Z,8.02
2023-05-03T01:30:43.914Z,8.02
2023-05-03T01:31:44.132Z,7.99
2023-05-03T01:32:44.307Z,7.98
2023-05-03T01:33:44.414Z,7.99
2023-05-03T01:34:44.684Z,7.99
2023-05-03T01:35:44.841Z,8.02
2023-05-03T01:36:45.008Z,7.99
2023-05-03T01:37:45.158Z,8.02
2023-05-03T01:38:45.409Z,8.01
2023-05-03T01:39:45.586Z,8.01
2023-05-03T01:40:45.735Z,7.99
2023-05-03T01:41:45.887Z,7.99
2023-05-03T01:42:46.164Z,7.96
2023-05-03T01:43:46.443Z,7.95
2023-05-03T01:44:46.592Z,7.95
2023-05-03T01:45:46.807Z,7.91
2023-05-03T01:46:46.942Z,7.90
2023-05-03T01:47:47.134Z,7.87
2023-05-03T01:48:47.265Z,7.84
2023-05-03T01:49:47.419Z,7.81
2023-05-03T01:50:47.559Z,7.81
2023-05-03T01:51:47.698Z,7.78
2023-05-03T01:52:47.973Z,7.78
2023-05-03T01:53:48.122Z,7.75
2023-05-03T01:54:48.300Z,7.74
2023-05-03T01:55:48.457Z,7.75
2023-05-03T01:56:48.720Z,7.75
2023-05-03T01:57:48.879Z,7.74
2023-05-03T01:58:49.139Z,7.74
2023-05-03T01:59:49.402Z,7.70
2023-05-03T02:00:49.632Z,7.70
2023-05-03T02:01:49.750Z,7.69
2023-05-03T02:02:49.979Z,7.70
2023-05-03T02:03:50.071Z,7.69
2023-05-03T02:04:50.584Z,7.74
2023-05-03T02:05:50.614Z,7.77
2023-05-03T02:06:50.890Z,7.75
2023-05-03T02:07:50.966Z,7.72
2023-05-03T02:08:51.150Z,7.70
2023-05-03T02:09:51.302Z,7.70
2023-05-03T02:10:51.572Z,7.72
2023-05-03T02:11:51.719Z,7.70
2023-05-03T02:12:51.991Z,7.69
2023-05-03T02:13:52.145Z,7.74
2023-05-03T02:14:52.444Z,7.72
2023-05-03T02:15:52.594Z,7.69
2023-05-03T02:16:52.895Z,7.69
2023-05-03T02:17:53.029Z,7.62
2023-05-03T02:18:53.289Z,7.61
2023-05-03T02:19:53.452Z,7.59
2023-05-03T02:20:53.620Z,7.56
2023-05-03T02:21:53.783Z,7.53
2023-05-03T02:22:53.921Z,7.56
2023-05-03T02:23:54.086Z,7.53
2023-05-03T02:24:54.356Z,7.51
2023-05-03T02:25:54.517Z,7.56
2023-05-03T02:26:54.790Z,7.56
2023-05-03T02:27:54.969Z,7.55
2023-05-03T02:28:55.105Z,7.56
2023-05-03T02:29:55.266Z,7.53
2023-05-03T02:30:55.487Z,7.48
2023-05-03T02:31:55.596Z,7.46
2023-05-03T02:32:55.897Z,7.46
2023-05-03T02:33:56.039Z,7.46
2023-05-03T02:34:56.234Z,7.46
2023-05-03T02:35:56.377Z,7.46
2023-05-03T02:36:56.522Z,7.44
2023-05-03T02:37:56.667Z,7.41
2023-05-03T02:38:56.938Z,7.40
2023-05-03T02:39:57.115Z,7.39
2023-05-03T02:40:57.267Z,7.41
2023-05-03T02:41:57.450Z,7.41
2023-05-03T02:42:57.603Z,7.41
2023-05-03T02:43:57.790Z,7.41
2023-05-03T02:44:58.044Z,7.39
2023-05-03T02:45:58.214Z,7.39
2023-05-03T02:46:58.459Z,7.41
2023-05-03T02:47:58.657Z,7.41
2023-05-03T02:48:58.848Z,7.40
2023-05-03T02:49:58.994Z,7.39
2023-05-03T02:50:59.161Z,7.40
2023-05-03T02:51:59.313Z,7.44
2023-05-03T02:52:59.607Z,7.37
2023-05-03T02:53:59.738Z,7.33
2023-05-03T02:54:59.925Z,7.32
2023-05-03T02:56:00.082Z,7.32
2023-05-03T02:57:00.312Z,7.31
2023-05-03T02:58:00.453Z,7.28
2023-05-03T02:59:00.727Z,7.25
2023-05-03T03:00:01.229Z,7.23
2023-05-03T03:01:01.042Z,7.23
2023-05-03T03:02:01.279Z,7.21
2023-05-03T03:03:01.483Z,7.18
2023-05-03T03:04:01.725Z,7.14
2023-05-03T03:05:01.877Z,7.15
2023-05-03T03:06:02.187Z,7.19
2023-05-03T03:07:02.283Z,7.19
2023-05-03T03:08:02.449Z,7.15
2023-05-03T03:09:02.712Z,7.18
2023-05-03T03:10:03.136Z,7.14
2023-05-03T03:11:03.039Z,7.15
2023-05-03T03:12:03.215Z,7.11
2023-05-03T03:13:03.416Z,7.13
2023-05-03T03:14:03.579Z,7.15
2023-05-03T03:15:03.771Z,7.15
2023-05-03T03:16:04.010Z,7.13
2023-05-03T03:17:04.186Z,7.10
2023-05-03T03:18:04.418Z,7.07
2023-05-03T03:19:04.573Z,7.04
2023-05-03T03:20:04.985Z,7.01
2023-05-03T03:21:04.921Z,7.00
2023-05-03T03:22:05.076Z,6.97
2023-05-03T03:23:05.246Z,6.97
2023-05-03T03:24:05.403Z,6.93
2023-05-03T03:25:05.704Z,6.90
2023-05-03T03:26:05.899Z,6.89
2023-05-03T03:27:06.056Z,6.87
2023-05-03T03:28:06.213Z,6.86
2023-05-03T03:29:06.402Z,6.86
2023-05-03T03:30:06.595Z,6.86
2023-05-03T03:31:06.856Z,6.87
2023-05-03T03:32:07.049Z,6.85
2023-05-03T03:33:07.257Z,6.82
2023-05-03T03:34:07.414Z,6.78
2023-05-03T03:35:07.702Z,6.77
2023-05-03T03:36:07.864Z,6.74
2023-05-03T03:37:08.138Z,6.72
2023-05-03T03:38:08.302Z,6.72
2023-05-03T03:39:08.561Z,6.75
2023-05-03T03:40:08.779Z,6.75
2023-05-03T03:41:08.925Z,6.74
2023-05-03T03:42:09.089Z,6.72
2023-05-03T03:43:09.296Z,6.74
2023-05-03T03:44:09.448Z,6.75
2023-05-03T03:45:09.709Z,6.75
2023-05-03T03:46:09.862Z,6.77
2023-05-03T03:47:10.135Z,6.82
2023-05-03T03:48:10.274Z,6.83
2023-05-03T03:49:10.396Z,6.83
2023-05-03T03:50:10.696Z,6.85
2023-05-03T03:51:10.850Z,6.87
2023-05-03T03:52:11.016Z,6.86
2023-05-03T03:53:11.256Z,6.85
2023-05-03T03:54:11.391Z,6.86
2023-05-03T03:55:11.618Z,6.85
2023-05-03T03:56:11.687Z,6.82
2023-05-03T03:57:11.955Z,6.83
2023-05-03T03:58:12.239Z,6.83
2023-05-03T03:59:12.407Z,6.85
2023-05-03T04:00:12.609Z,6.82
2023-05-03T04:01:12.798Z,6.82
2023-05-03T04:02:13.027Z,6.82
2023-05-03T04:03:13.249Z,6.80
2023-05-03T04:04:13.551Z,6.78
2023-05-03T04:05:13.642Z,6.77
2023-05-03T04:06:13.824Z,6.78
2023-05-03T04:07:13.972Z,6.77
2023-05-03T04:08:14.121Z,6.75
2023-05-03T04:09:14.278Z,6.72
2023-05-03T04:10:14.470Z,6.74
2023-05-03T04:11:14.632Z,6.78
2023-05-03T04:12:14.906Z,6.77
2023-05-03T04:13:15.072Z,6.80
2023-05-03T04:14:15.344Z,6.82
2023-05-03T04:15:15.512Z,6.83
2023-05-03T04:16:15.727Z,6.86
2023-05-03T04:17:15.882Z,6.87
2023-05-03T04:18:16.030Z,6.87
2023-05-03T04:19:16.172Z,6.89
2023-05-03T04:20:16.508Z,6.89
2023-05-03T04:21:16.653Z,6.89
2023-05-03T04:22:16.803Z,6.90
2023-05-03T04:23:16.997Z,6.92
2023-05-03T04:24:17.166Z,6.92
2023-05-03T04:25:17.482Z,6.90
2023-05-03T04:26:30.741Z,6.89
2023-05-03T04:27:18.797Z,6.92
2023-05-03T04:28:17.941Z,6.95
2023-05-03T04:29:18.089Z,7.03
2023-05-03T04:30:18.257Z,7.07
2023-05-03T04:31:18.436Z,7.07
2023-05-03T04:32:18.701Z,7.08
2023-05-03T04:33:18.853Z,7.05
2023-05-03T04:34:19.026Z,7.08
2023-05-03T04:35:19.192Z,7.10
2023-05-03T04:36:19.343Z,7.10
2023-05-03T04:37:19.489Z,7.11
2023-05-03T04:38:19.760Z,7.14
2023-05-03T04:39:19.895Z,7.21
2023-05-03T04:40:20.189Z,7.22
2023-05-03T04:41:20.346Z,7.25
2023-05-03T04:42:20.518Z,7.25
2023-05-03T04:43:20.667Z,7.23
2023-05-03T04:44:20.878Z,7.25
2023-05-03T04:45:21.030Z,7.29
2023-05-03T04:46:21.232Z,7.32
2023-05-03T04:47:21.345Z,7.36
2023-05-03T04:48:21.508Z,7.41
2023-05-03T04:49:21.662Z,7.40
2023-05-03T04:50:21.833Z,7.41
2023-05-03T04:51:21.993Z,7.47
2023-05-03T04:52:22.130Z,7.53
2023-05-03T04:53:22.274Z,7.55
2023-05-03T04:54:22.432Z,7.56
2023-05-03T04:55:22.620Z,7.58
2023-05-03T04:56:22.789Z,7.66
2023-05-03T04:57:22.964Z,7.72
2023-05-03T04:58:23.106Z,7.75
2023-05-03T04:59:23.252Z,7.75
2023-05-03T05:00:23.456Z,7.75
2023-05-03T05:01:23.579Z,7.81
2023-05-03T05:02:23.900Z,7.81
2023-05-03T05:03:24.049Z,7.84
2023-05-03T05:04:24.258Z,7.87
2023-05-03T05:05:24.433Z,7.88
2023-05-03T05:06:24.612Z,7.85
2023-05-03T05:07:24.728Z,7.90
2023-05-03T05:08:24.886Z,7.90
2023-05-03T05:09:25.036Z,7.93
2023-05-03T05:10:25.214Z,7.95
2023-05-03T05:11:25.359Z,7.98
2023-05-03T05:12:25.639Z,8.01
2023-05-03T05:13:25.792Z,8.01
2023-05-03T05:14:25.947Z,8.02
2023-05-03T05:15:26.102Z,8.06
2023-05-03T05:16:26.273Z,8.06
2023-05-03T05:17:26.446Z,8.09
2023-05-03T05:18:26.673Z,8.09
2023-05-03T05:19:26.771Z,8.16
2023-05-03T05:20:27.041Z,8.20
2023-05-03T05:21:27.193Z,8.18
2023-05-03T05:22:27.475Z,8.24
2023-05-03T05:23:27.607Z,8.28
2023-05-03T05:24:27.753Z,8.28
2023-05-03T05:25:27.933Z,8.26
2023-05-03T05:26:28.062Z,8.28
2023-05-03T05:27:28.187Z,8.32
2023-05-03T05:28:28.344Z,8.38
2023-05-03T05:29:28.480Z,8.44
2023-05-03T05:30:28.676Z,8.49
2023-05-03T05:31:28.820Z,8.57
2023-05-03T05:32:29.062Z,8.63
2023-05-03T05:33:29.253Z,8.68
2023-05-03T05:34:32.328Z,8.75
2023-05-03T05:35:30.609Z,8.79
2023-05-03T05:36:29.770Z,8.89
2023-05-03T05:37:29.979Z,8.95
2023-05-03T05:38:30.120Z,9.00
2023-05-03T05:39:30.325Z,9.05
2023-05-03T05:40:30.464Z,9.11
2023-05-03T05:41:30.608Z,9.12
2023-05-03T05:42:30.758Z,9.15
2023-05-03T05:43:30.899Z,9.24
2023-05-03T05:44:31.033Z,9.34
2023-05-03T05:45:31.178Z,9.42
2023-05-03T05:46:31.504Z,9.42
2023-05-03T05:47:31.633Z,9.49
2023-05-03T05:48:31.740Z,9.55
2023-05-03T05:49:31.884Z,9.62
2023-05-03T05:50:32.004Z,9.69
2023-05-03T05:51:32.213Z,9.72
2023-05-03T05:52:32.355Z,9.77
2023-05-03T05:53:32.502Z,9.88
2023-05-03T05:54:32.647Z,10.17
2023-05-03T05:55:32.787Z,10.65
2023-05-03T05:56:32.942Z,11.30
2023-05-03T05:57:33.057Z,12.18
2023-05-03T05:58:33.314Z,13.06
2023-05-03T05:59:33.435Z,13.50
2023-05-03T06:00:33.674Z,13.75
2023-05-03T06:01:33.836Z,14.07
2023-05-03T06:02:34.076Z,14.52
2023-05-03T06:03:34.134Z,14.81
2023-05-03T06:04:34.375Z,15.27
2023-05-03T06:05:34.593Z,15.59
2023-05-03T06:06:34.818Z,15.75
2023-05-03T06:07:34.886Z,15.96
2023-05-03T06:08:35.001Z,16.12
2023-05-03T06:09:35.108Z,16.32
2023-05-03T06:10:35.316Z,16.26
2023-05-03T06:11:35.447Z,16.37
2023-05-03T06:12:35.537Z,16.64
2023-05-03T06:13:35.622Z,16.83
2023-05-03T06:14:35.830Z,16.86
2023-05-03T06:15:35.914Z,17.04
2023-05-03T06:16:36.060Z,17.31
2023-05-03T06:17:36.138Z,17.49
2023-05-03T06:18:36.219Z,17.47
2023-05-03T06:19:36.311Z,17.60
2023-05-03T06:20:36.383Z,17.71
2023-05-03T06:21:36.510Z,17.54
2023-05-03T06:22:36.603Z,17.52
2023-05-03T06:23:36.686Z,17.47
2023-05-03T06:24:36.753Z,17.79
2023-05-03T06:25:36.823Z,18.02
2023-05-03T06:26:36.915Z,18.39
2023-05-03T06:27:36.993Z,18.83
2023-05-03T06:28:37.088Z,18.96
2023-05-03T06:29:37.160Z,19.15
2023-05-03T06:30:37.242Z,18.96
2023-05-03T06:31:37.449Z,18.61
2023-05-03T06:32:37.517Z,18.71
2023-05-03T06:33:37.540Z,18.68
2023-05-03T06:34:37.601Z,18.76
2023-05-03T06:35:37.667Z,18.71
2023-05-03T06:36:37.816Z,18.46
2023-05-03T06:37:37.847Z,18.30
2023-05-03T06:38:38.016Z,18.64
2023-05-03T06:39:38.083Z,18.53
2023-05-03T06:40:38.557Z,18.89
2023-05-03T06:41:38.391Z,19.42
2023-05-03T06:42:38.477Z,19.56
2023-05-03T06:43:38.582Z,19.34
2023-05-03T06:44:38.627Z,19.45
2023-05-03T06:45:38.650Z,19.78
2023-05-03T06:46:38.801Z,19.87
2023-05-03T06:47:38.822Z,19.74
2023-05-03T06:48:38.995Z,19.64
2023-05-03T06:49:39.012Z,19.53
2023-05-03T06:50:39.070Z,19.41
2023-05-03T06:51:39.131Z,19.04
2023-05-03T06:52:39.195Z,18.67
2023-05-03T06:53:39.229Z,18.81
2023-05-03T06:54:39.389Z,19.07
2023-05-03T06:55:40.418Z,19.23
2023-05-03T06:56:39.584Z,19.19
2023-05-03T06:57:39.644Z,18.88
2023-05-03T06:58:39.694Z,18.96
2023-05-03T06:59:39.724Z,18.83
2023-05-03T07:00:39.879Z,18.27
2023-05-03T07:01:39.933Z,18.39
2023-05-03T07:02:40.068Z,18.64
2023-05-03T07:03:41.846Z,18.70
2023-05-03T07:04:40.162Z,19.41
2023-05-03T07:05:40.192Z,19.44
2023-05-03T07:06:52.465Z,19.41
2023-05-03T07:07:41.316Z,19.24
2023-05-03T07:08:40.353Z,19.32
2023-05-03T07:09:43.661Z,18.97
2023-05-03T07:10:40.475Z,19.26
2023-05-03T07:11:40.514Z,19.57
2023-05-03T07:12:40.560Z,19.64
2023-05-03T07:13:40.601Z,19.49
2023-05-03T07:14:40.672Z,19.48
2023-05-03T07:15:40.664Z,19.30
2023-05-03T07:16:40.855Z,19.00
2023-05-03T07:17:40.832Z,18.91
2023-05-03T07:18:40.858Z,19.12
2023-05-03T07:19:40.932Z,19.32
2023-05-03T07:20:41.009Z,19.35
2023-05-03T07:21:41.056Z,19.75
2023-05-03T07:22:41.146Z,19.19
2023-05-03T07:23:41.175Z,18.81
2023-05-03T07:24:41.268Z,18.88
2023-05-03T07:25:41.291Z,18.66
2023-05-03T07:26:43.708Z,17.90
2023-05-03T07:27:41.456Z,18.24
2023-05-03T07:28:41.475Z,18.27
2023-05-03T07:29:41.505Z,18.76
2023-05-03T07:30:41.518Z,18.98
2023-05-03T07:31:41.548Z,19.34
2023-05-03T07:32:41.609Z,19.35
2023-05-03T07:33:41.716Z,18.85
2023-05-03T07:34:41.674Z,18.12
2023-05-03T07:35:41.696Z,17.78
2023-05-03T07:36:41.737Z,18.27
2023-05-03T07:37:41.771Z,18.66
2023-05-03T07:38:41.806Z,18.60
2023-05-03T07:39:41.838Z,18.60
2023-05-03T07:40:41.878Z,18.52
2023-05-03T07:41:41.896Z,18.63
2023-05-03T07:42:41.938Z,18.96
2023-05-03T07:43:41.963Z,19.26
2023-05-03T07:44:42.011Z,19.72
2023-05-03T07:45:42.077Z,20.42
2023-05-03T07:46:42.102Z,20.37
2023-05-03T07:47:42.162Z,20.19
2023-05-03T07:48:42.160Z,19.12
2023-05-03T07:49:42.179Z,18.43
2023-05-03T07:50:42.195Z,17.94
2023-05-03T07:51:42.226Z,17.68
2023-05-03T07:52:42.281Z,17.95
2023-05-03T07:53:42.282Z,18.08
2023-05-03T07:54:42.342Z,17.72
2023-05-03T07:55:42.363Z,18.03
2023-05-03T07:56:42.404Z,18.60
2023-05-03T07:57:42.469Z,17.72
2023-05-03T07:58:44.942Z,17.34
2023-05-03T07:59:42.504Z,17.53
2023-05-03T08:00:42.543Z,17.57
2023-05-03T08:01:42.564Z,17.39
2023-05-03T08:02:42.905Z,17.42
2023-05-03T08:03:42.700Z,18.05
2023-05-03T08:04:42.936Z,18.39
2023-05-03T08:05:42.760Z,18.41
2023-05-03T08:06:42.765Z,17.66
2023-05-03T08:07:42.789Z,17.28
2023-05-03T08:08:42.797Z,17.17
2023-05-03T08:09:42.805Z,17.41
2023-05-03T08:10:43.218Z,17.66
2023-05-03T08:11:44.209Z,17.90
2023-05-03T08:12:42.934Z,18.36
2023-05-03T08:13:42.959Z,18.61
2023-05-03T08:14:44.032Z,18.81
2023-05-03T08:15:43.097Z,17.63
2023-05-03T08:16:43.076Z,17.02
2023-05-03T08:17:43.195Z,16.89
2023-05-03T08:18:43.098Z,16.80
2023-05-03T08:19:43.101Z,17.23
2023-05-03T08:20:43.119Z,17.63
2023-05-03T08:21:43.165Z,17.80
2023-05-03T08:22:43.151Z,17.93
2023-05-03T08:23:43.171Z,18.31
2023-05-03T08:24:43.171Z,17.93
2023-05-03T08:25:43.356Z,17.30
2023-05-03T08:26:43.279Z,17.34
2023-05-03T08:27:43.992Z,17.46
2023-05-03T08:28:43.379Z,17.93
2023-05-03T08:29:43.373Z,18.13
2023-05-03T08:30:43.363Z,18.61
2023-05-03T08:31:43.407Z,18.86
2023-05-03T08:32:43.530Z,19.26
2023-05-03T08:33:43.506Z,19.52
2023-05-03T08:34:43.508Z,19.90
2023-05-03T08:35:43.547Z,19.82
2023-05-03T08:36:43.544Z,19.60
2023-05-03T08:37:43.568Z,20.12
2023-05-03T08:38:43.567Z,20.40
2023-05-03T08:39:43.554Z,20.53
2023-05-03T08:40:43.580Z,20.71
2023-05-03T08:41:43.682Z,20.58
2023-05-03T08:42:43.564Z,20.80
2023-05-03T08:43:43.549Z,21.03
2023-05-03T08:44:43.524Z,21.33
2023-05-03T08:45:43.540Z,20.96
2023-05-03T08:46:43.536Z,20.85
2023-05-03T08:47:43.553Z,20.60
2023-05-03T08:48:43.481Z,20.24
2023-05-03T08:49:43.457Z,19.67
2023-05-03T08:50:43.427Z,19.05
2023-05-03T08:51:43.414Z,18.64
2023-05-03T08:52:43.414Z,18.78
2023-05-03T08:53:43.368Z,19.20
2023-05-03T08:54:44.260Z,19.37
2023-05-03T08:55:43.396Z,19.56
2023-05-03T08:56:43.401Z,19.41
2023-05-03T08:57:43.346Z,19.11
2023-05-03T08:58:43.314Z,19.00
2023-05-03T08:59:43.289Z,19.15
2023-05-03T09:00:43.323Z,19.11
2023-05-03T09:01:43.359Z,19.09
2023-05-03T09:02:43.516Z,18.85
2023-05-03T09:03:43.445Z,18.49
2023-05-03T09:04:43.357Z,18.60
2023-05-03T09:05:43.338Z,18.67
2023-05-03T09:06:43.397Z,18.83
2023-05-03T09:07:43.390Z,19.38
2023-05-03T09:08:43.401Z,19.47
2023-05-03T09:09:45.566Z,19.42
2023-05-03T09:10:43.436Z,18.12
2023-05-03T09:11:43.465Z,17.71
2023-05-03T09:12:43.396Z,17.20
2023-05-03T09:13:43.986Z,17.66
2023-05-03T09:14:43.286Z,17.94
2023-05-03T09:15:43.271Z,18.15
2023-05-03T09:16:43.287Z,18.68
2023-05-03T09:17:43.246Z,19.35
2023-05-03T09:18:43.207Z,19.63
2023-05-03T09:19:43.158Z,19.26
2023-05-03T09:20:43.148Z,19.08
2023-05-03T09:21:43.146Z,19.37
2023-05-03T09:22:43.122Z,19.49
2023-05-03T09:23:43.088Z,19.45
2023-05-03T09:24:43.253Z,19.44
2023-05-03T09:25:43.018Z,19.59
2023-05-03T09:26:42.981Z,19.00
2023-05-03T09:27:43.009Z,18.67
2023-05-03T09:28:42.972Z,18.53
2023-05-03T09:29:42.951Z,17.95
2023-05-03T09:30:42.914Z,17.31
2023-05-03T09:31:42.913Z,16.76
2023-05-03T09:32:42.976Z,16.82
2023-05-03T09:33:42.909Z,16.49
2023-05-03T09:34:42.865Z,16.89
2023-05-03T09:35:42.832Z,17.20
2023-05-03T09:36:44.479Z,17.56
2023-05-03T09:37:42.787Z,18.02
2023-05-03T09:38:42.769Z,17.57
2023-05-03T09:39:42.763Z,17.59
2023-05-03T09:40:42.747Z,18.15
2023-05-03T09:41:42.789Z,18.13
2023-05-03T09:42:42.785Z,17.90
2023-05-03T09:43:42.787Z,17.09
2023-05-03T09:44:42.756Z,16.59
2023-05-03T09:45:42.803Z,16.44
2023-05-03T09:46:42.752Z,16.83
2023-05-03T09:47:42.783Z,17.20
2023-05-03T09:48:42.722Z,18.02
2023-05-03T09:49:42.706Z,18.86
2023-05-03T09:50:42.682Z,19.08
2023-05-03T09:51:42.663Z,18.88
2023-05-03T09:52:42.653Z,18.70
2023-05-03T09:53:42.641Z,18.79
2023-05-03T09:54:42.567Z,18.97
2023-05-03T09:55:42.562Z,19.24
2023-05-03T09:56:42.507Z,18.51
2023-05-03T09:57:42.538Z,18.24
2023-05-03T09:58:42.505Z,18.28
2023-05-03T09:59:42.486Z,18.28
2023-05-03T10:00:42.431Z,18.23
2023-05-03T10:01:42.468Z,18.24
2023-05-03T10:02:42.449Z,18.48
2023-05-03T10:03:42.453Z,18.60
2023-05-03T10:04:42.385Z,18.27
2023-05-03T10:05:42.382Z,18.34
2023-05-03T10:06:42.395Z,18.68
2023-05-03T10:07:42.358Z,18.48
2023-05-03T10:08:42.308Z,18.24
2023-05-03T10:09:42.278Z,18.61
2023-05-03T10:10:42.222Z,18.74
2023-05-03T10:11:42.246Z,18.89
2023-05-03T10:12:42.198Z,18.48
2023-05-03T10:13:42.147Z,18.70
2023-05-03T10:14:42.109Z,18.97
2023-05-03T10:15:42.061Z,19.16
2023-05-03T10:16:42.015Z,19.66
2023-05-03T10:17:47.116Z,19.92
2023-05-03T10:18:43.171Z,20.19
2023-05-03T10:19:42.179Z,19.63
2023-05-03T10:20:41.912Z,19.09
2023-05-03T10:21:41.860Z,18.71
2023-05-03T10:22:41.882Z,18.03
2023-05-03T10:23:41.835Z,18.31
2023-05-03T10:24:41.792Z,18.61
2023-05-03T10:25:41.754Z,19.29
2023-05-03T10:26:41.707Z,19.79
2023-05-03T10:27:41.782Z,20.30
2023-05-03T10:28:41.723Z,20.73
2023-05-03T10:29:41.681Z,21.15
2023-05-03T10:30:41.627Z,21.66
2023-05-03T10:31:41.689Z,21.75
2023-05-03T10:32:41.628Z,21.75
2023-05-03T10:33:41.570Z,21.91
2023-05-03T10:34:41.547Z,22.25
2023-05-03T10:35:41.503Z,22.47
2023-05-03T10:36:49.324Z,22.56
2023-05-03T10:37:42.391Z,22.73
2023-05-03T10:38:41.337Z,22.65
2023-05-03T10:39:41.260Z,21.91
2023-05-03T10:40:41.209Z,21.85
2023-05-03T10:41:41.193Z,21.84
2023-05-03T10:42:41.348Z,22.30
2023-05-03T10:43:41.097Z,22.21
2023-05-03T10:44:41.139Z,22.53
2023-05-03T10:45:41.092Z,22.86
2023-05-03T10:46:41.084Z,22.99
2023-05-03T10:47:41.114Z,22.81
2023-05-03T10:48:40.914Z,22.22
2023-05-03T10:49:40.961Z,22.06
2023-05-03T10:50:40.935Z,22.30
2023-05-03T10:51:40.941Z,22.26
2023-05-03T10:52:40.895Z,22.30
2023-05-03T10:53:41.032Z,22.19
2023-05-03T10:54:40.864Z,22.38
2023-05-03T10:55:40.845Z,22.52
2023-05-03T10:56:40.856Z,23.08
2023-05-03T10:57:41.010Z,23.33
2023-05-03T10:58:40.853Z,23.21
2023-05-03T10:59:40.873Z,22.53
2023-05-03T11:00:40.803Z,22.83
2023-05-03T11:01:40.853Z,23.08
2023-05-03T11:02:40.658Z,23.45
2023-05-03T11:03:40.660Z,23.84
2023-05-03T11:04:40.651Z,24.21
2023-05-03T11:05:40.613Z,23.59
2023-05-03T11:06:41.607Z,22.21
2023-05-03T11:07:40.592Z,21.45
2023-05-03T11:08:40.549Z,21.97
2023-05-03T11:09:40.493Z,22.80
2023-05-03T11:10:40.454Z,23.48
2023-05-03T11:11:40.417Z,24.06
2023-05-03T11:12:40.394Z,24.10
2023-05-03T11:13:40.359Z,23.82
2023-05-03T11:14:40.286Z,23.88
2023-05-03T11:15:40.257Z,24.51
2023-05-03T11:16:40.199Z,25.11
2023-05-03T11:17:40.196Z,25.26
2023-05-03T11:18:40.122Z,25.49
2023-05-03T11:19:40.107Z,25.63
2023-05-03T11:20:41.027Z,25.48
2023-05-03T11:21:39.971Z,23.94
2023-05-03T11:22:39.957Z,23.85
2023-05-03T11:23:39.905Z,24.13
2023-05-03T11:24:39.848Z,24.65
2023-05-03T11:25:39.783Z,25.22
2023-05-03T11:26:46.848Z,25.16
2023-05-03T11:27:39.676Z,25.18
2023-05-03T11:28:39.621Z,25.51
2023-05-03T11:29:39.569Z,25.99
2023-05-03T11:30:39.512Z,26.18
2023-05-03T11:31:39.508Z,26.08
2023-05-03T11:32:39.424Z,26.26
2023-05-03T11:33:39.368Z,26.22
2023-05-03T11:34:39.314Z,26.61
2023-05-03T11:35:39.271Z,26.41
2023-05-03T11:36:39.205Z,25.21
2023-05-03T11:37:39.195Z,24.21
2023-05-03T11:38:39.140Z,24.16
2023-05-03T11:39:39.150Z,24.75
2023-05-03T11:40:39.102Z,25.12
2023-05-03T11:41:39.052Z,25.14
2023-05-03T11:42:39.001Z,25.52
2023-05-03T11:43:38.949Z,26.15
2023-05-03T11:44:38.905Z,26.76
2023-05-03T11:45:38.924Z,26.97
2023-05-03T11:46:39.032Z,27.04
2023-05-03T11:47:38.881Z,27.45
2023-05-03T11:48:38.868Z,27.71
2023-05-03T11:49:38.723Z,27.88
2023-05-03T11:50:38.683Z,28.09
2023-05-03T11:51:38.638Z,27.57
2023-05-03T11:52:38.590Z,27.38
2023-05-03T11:53:38.533Z,25.81
2023-05-03T11:54:38.497Z,24.77
2023-05-03T11:55:38.444Z,23.82
2023-05-03T11:56:38.615Z,23.67
2023-05-03T11:57:38.553Z,23.48
2023-05-03T11:58:38.511Z,24.10
2023-05-03T11:59:38.489Z,24.37
2023-05-03T12:00:38.475Z,25.00
2023-05-03T12:01:38.440Z,24.78
2023-05-03T12:02:38.648Z,24.62
2023-05-03T12:03:38.545Z,24.03
2023-05-03T12:04:39.024Z,23.69
2023-05-03T12:05:38.677Z,22.59
2023-05-03T12:06:39.822Z,22.31
2023-05-03T12:07:38.536Z,22.23
2023-05-03T12:08:41.814Z,22.63
2023-05-03T12:09:39.699Z,23.04
2023-05-03T12:10:38.646Z,23.73
2023-05-03T12:11:39.707Z,24.01
2023-05-03T12:12:42.832Z,24.48
2023-05-03T12:13:40.536Z,25.26
2023-05-03T12:14:39.318Z,25.98
2023-05-03T12:15:40.590Z,26.33
2023-05-03T12:16:38.548Z,26.78
2023-05-03T12:17:39.561Z,26.71
2023-05-03T12:18:39.411Z,27.13
2023-05-03T12:19:39.092Z,27.26
2023-05-03T12:21:38.741Z,27.34
2023-05-03T12:22:38.764Z,27.16
2023-05-03T12:23:38.420Z,26.76
2023-05-03T12:24:39.620Z,26.23
2023-05-03T12:25:39.819Z,26.10
2023-05-03T12:26:38.328Z,26.03
2023-05-03T12:27:40.556Z,25.67
2023-05-03T12:28:38.302Z,25.73
2023-05-03T12:29:39.578Z,26.01
2023-05-03T12:30:40.424Z,25.83
2023-05-03T12:31:39.536Z,25.73
2023-05-03T12:32:39.264Z,26.06
2023-05-03T12:33:38.962Z,25.44
2023-05-03T12:34:41.144Z,25.52
2023-05-03T12:35:40.697Z,25.76
2023-05-03T12:36:38.775Z,25.85
2023-05-03T12:37:38.658Z,26.06
2023-05-03T12:38:38.472Z,26.31
2023-05-03T12:39:39.889Z,26.24
2023-05-03T12:40:38.461Z,25.99
2023-05-03T12:42:38.323Z,24.55
2023-05-03T12:43:38.341Z,24.03
2023-05-03T12:44:41.725Z,23.21
2023-05-03T12:45:40.581Z,22.73
2023-05-03T12:46:38.948Z,22.52
2023-05-03T12:47:38.402Z,22.91
2023-05-03T12:48:38.547Z,23.44
2023-05-03T12:49:39.721Z,23.01
2023-05-03T12:50:39.317Z,22.30
2023-05-03T12:51:42.238Z,22.21
2023-05-03T12:52:39.139Z,22.46
2023-05-03T12:53:39.173Z,23.16
2023-05-03T12:54:41.430Z,23.84
2023-05-03T12:55:42.879Z,24.25
2023-05-03T12:56:40.141Z,24.74
2023-05-03T12:57:38.682Z,25.26
2023-05-03T12:59:05.192Z,25.43
2023-05-03T12:59:42.295Z,24.63
2023-05-03T13:00:45.951Z,24.10
2023-05-03T13:02:40.775Z,24.34
2023-05-03T13:03:43.750Z,25.36
2023-05-03T13:05:38.930Z,25.92
2023-05-03T13:06:42.389Z,25.77
2023-05-03T13:07:43.182Z,25.68
2023-05-03T13:08:48.313Z,25.66
2023-05-03T13:10:39.499Z,25.92